首页
METAR-TAF:

METAR-TAF

机场 :

Cook Municipal Airport

Cook, 明尼蘇達州, 美国

纬度: 47-49-19N, 经度: 092-41-22W, 海拔: 405米

当前天气观测

该预报发布于28分钟前的22:35 UTC
风速6节,风向西
温度 24°C
湿度 34%
气压 1017 hPa
能見度: 16.1公里
散云层高于8500英尺

METAR: KCQM 142235Z AUTO 26006KT 10SM SCT085 24/07 A3002 RMK AO2

时间: 18:03 (23:03 UTC)


TAF: 丢失

超过4000个机场的气象观测和天气预报(METAR&TAF报告)。

可查询的气象台以黄色和红色小点在地图上表示。

将鼠标移到小点上方,可查看气象台名称。

然后点击查看天气观测和预报。

如需切换地图:点击带黑十字的绿色按钮放大地图;点击带横线的绿色按钮缩小地图;或者点击绿色箭头查看邻近地区的地图。


METAR-TAF: